Time;durP1;ratioP1;P1;durP2;ratioP2;P2;SDS_P1;SDS_P2;PMS_P1;PMS_P2;Temp;Humidity;BMP_temperature;BMP_pressure;BME280_temperature;BME280_humidity;BME280_pressure;Samples;Min_cycle;Max_cycle;Signal;HPM_P1;HPM_P2
2021/12/14 00:01:06;;;;;;;20.23;13.77;;;9.40;99.90;;;;;;5053129;28;20171;-54
2021/12/14 00:03:33;;;;;;;23.23;14.95;;;9.50;99.90;;;;;;5034562;28;20093;-54
2021/12/14 00:05:59;;;;;;;25.85;15.45;;;9.40;99.90;;;;;;5052136;28;20032;-51
2021/12/14 00:08:31;;;;;;;25.10;14.23;;;9.40;99.90;;;;;;5052571;28;20033;-53
2021/12/14 00:13:49;;;;;;;25.52;14.73;;;9.40;99.90;;;;;;5053009;28;20029;-54
2021/12/14 00:16:15;;;;;;;23.92;15.55;;;9.40;99.90;;;;;;5057564;28;20037;-52
2021/12/14 00:18:41;;;;;;;28.33;15.73;;;9.30;99.90;;;;;;5056340;28;20017;-56
2021/12/14 00:21:18;;;;;;;28.27;14.77;;;9.40;99.90;;;;;;5056751;28;20100;-54
2021/12/14 00:26:29;;;;;;;22.98;14.05;;;9.40;99.90;;;;;;5058413;28;20102;-56
2021/12/14 00:28:55;;;;;;;26.20;14.88;;;9.40;99.90;;;;;;5058349;28;20025;-54
2021/12/14 00:31:21;;;;;;;23.85;14.70;;;9.40;99.90;;;;;;5058809;28;20017;-55
2021/12/14 00:33:51;;;;;;;24.13;15.35;;;9.40;99.90;;;;;;5058649;28;20113;-55
2021/12/14 00:36:17;;;;;;;25.88;15.40;;;9.40;99.90;;;;;;5058733;28;20052;-52
2021/12/14 00:38:44;;;;;;;25.00;14.73;;;9.40;99.90;;;;;;5057812;28;20029;-54
2021/12/14 00:41:16;;;;;;;24.63;14.73;;;9.40;99.90;;;;;;5057928;28;20084;-55
2021/12/14 00:43:43;;;;;;;28.42;15.57;;;9.40;99.90;;;;;;5057305;28;20115;-55
2021/12/14 00:46:08;;;;;;;26.25;14.50;;;9.40;99.90;;;;;;5039062;28;20115;-54
2021/12/14 00:48:35;;;;;;;26.67;14.80;;;9.40;99.90;;;;;;5038419;28;20071;-54
2021/12/14 00:51:03;;;;;;;24.70;15.43;;;9.40;99.90;;;;;;5056946;28;20515;-54
2021/12/14 00:53:30;;;;;;;26.52;15.02;;;9.40;99.90;;;;;;5057092;28;20028;-55
2021/12/14 00:55:58;;;;;;;27.75;14.60;;;9.40;99.90;;;;;;5056735;28;20027;-52
2021/12/14 00:58:24;;;;;;;22.17;14.77;;;9.30;99.90;;;;;;5056777;28;20052;-51
2021/12/14 01:01:06;;;;;;;23.65;14.75;;;9.40;99.90;;;;;;5057045;28;20037;-55
2021/12/14 01:03:35;;;;;;;24.35;14.63;;;9.40;99.90;;;;;;5057020;28;20029;-54
2021/12/14 01:06:03;;;;;;;25.08;14.38;;;9.40;99.90;;;;;;5056289;28;20029;-52
2021/12/14 01:08:34;;;;;;;29.40;14.60;;;9.40;99.90;;;;;;5056436;28;20029;-52
2021/12/14 01:11:07;;;;;;;24.75;14.90;;;9.40;99.90;;;;;;5055923;28;20033;-54
2021/12/14 01:13:39;;;;;;;24.38;13.80;;;9.40;99.90;;;;;;5056266;28;20032;-51
2021/12/14 01:19:25;;;;;;;28.30;15.00;;;9.40;99.90;;;;;;5026140;28;20033;-54
2021/12/14 01:25:00;;;;;;;23.15;14.40;;;9.30;99.90;;;;;;5056372;28;20021;-55
2021/12/14 01:27:38;;;;;;;22.13;13.95;;;9.30;99.90;;;;;;5056251;28;20527;-54
2021/12/14 01:30:33;;;;;;;24.42;14.25;;;9.30;99.90;;;;;;5038333;28;20029;-54
2021/12/14 01:33:03;;;;;;;24.55;14.30;;;9.30;99.90;;;;;;5048767;28;20077;-56
2021/12/14 01:35:32;;;;;;;22.50;13.53;;;9.30;99.90;;;;;;5056557;28;20029;-56
2021/12/14 01:38:02;;;;;;;21.02;12.88;;;9.30;99.90;;;;;;5055717;28;20033;-54
2021/12/14 01:43:21;;;;;;;24.65;13.40;;;9.30;99.90;;;;;;5055820;28;20255;-55
2021/12/14 01:45:47;;;;;;;21.98;14.05;;;9.30;99.90;;;;;;5055881;28;20036;-54
2021/12/14 01:48:12;;;;;;;21.30;13.10;;;9.30;99.90;;;;;;5056037;28;20029;-55
2021/12/14 01:50:43;;;;;;;22.10;12.95;;;9.30;99.90;;;;;;5055872;28;20110;-55
2021/12/14 01:53:11;;;;;;;22.88;13.82;;;9.30;99.90;;;;;;5038524;28;20144;-54
2021/12/14 01:55:39;;;;;;;24.13;12.60;;;9.30;99.90;;;;;;5055638;28;20029;-54
2021/12/14 01:58:08;;;;;;;19.73;12.88;;;9.30;99.90;;;;;;5055407;28;20311;-53
2021/12/14 02:00:56;;;;;;;20.92;13.68;;;9.40;99.90;;;;;;5055261;28;20024;-54
2021/12/14 02:03:29;;;;;;;22.08;12.32;;;9.40;99.90;;;;;;5055045;28;20051;-54
2021/12/14 02:05:55;;;;;;;21.00;12.32;;;9.30;99.90;;;;;;5055417;28;20428;-54
2021/12/14 02:08:25;;;;;;;20.58;12.60;;;9.30;99.90;;;;;;5055003;28;20082;-52
2021/12/14 02:10:52;;;;;;;20.58;12.23;;;9.30;99.90;;;;;;5055196;28;20334;-55
2021/12/14 02:13:29;;;;;;;19.60;12.65;;;9.30;99.90;;;;;;5054817;28;20067;-55
2021/12/14 02:15:56;;;;;;;22.15;12.77;;;9.20;99.90;;;;;;5036866;28;20029;-51
2021/12/14 02:18:25;;;;;;;19.48;11.90;;;9.20;99.90;;;;;;5054875;28;20393;-55
2021/12/14 02:21:09;;;;;;;21.80;12.27;;;9.30;99.90;;;;;;5036258;28;20021;-55
2021/12/14 02:23:43;;;;;;;19.83;11.13;;;9.30;99.90;;;;;;5054558;28;20511;-56
2021/12/14 02:26:13;;;;;;;17.52;11.68;;;9.30;99.90;;;;;;5054852;28;20115;-54
2021/12/14 02:28:39;;;;;;;20.48;13.02;;;9.30;99.90;;;;;;5036856;28;20029;-53
2021/12/14 02:31:09;;;;;;;20.30;12.32;;;9.30;99.90;;;;;;5054648;28;20540;-55
2021/12/14 02:33:37;;;;;;;22.08;12.23;;;9.30;99.90;;;;;;5036883;28;20086;-55
2021/12/14 02:36:11;;;;;;;19.25;12.10;;;9.30;99.90;;;;;;5053689;28;20025;-52
2021/12/14 02:38:43;;;;;;;21.33;12.32;;;9.20;99.90;;;;;;5053208;28;20021;-52
2021/12/14 02:41:09;;;;;;;19.50;12.10;;;9.30;99.90;;;;;;5054134;28;20397;-52
2021/12/14 02:43:39;;;;;;;18.08;12.07;;;9.20;99.90;;;;;;5053879;28;20093;-53
2021/12/14 02:46:16;;;;;;;16.90;11.50;;;9.20;99.90;;;;;;5054056;28;20124;-53
2021/12/14 02:48:49;;;;;;;18.92;12.57;;;9.20;99.90;;;;;;5053647;28;20028;-52
2021/12/14 02:51:28;;;;;;;18.42;12.63;;;9.20;99.90;;;;;;5054184;28;20025;-55
2021/12/14 02:54:04;;;;;;;19.67;12.35;;;9.20;99.90;;;;;;5053416;28;20481;-55
2021/12/14 02:56:35;;;;;;;16.50;12.18;;;9.20;99.90;;;;;;5035581;28;20092;-52
2021/12/14 02:59:06;;;;;;;18.65;12.13;;;9.20;99.90;;;;;;5056261;28;20029;-55
2021/12/14 03:01:32;;;;;;;;;;;9.20;99.90;;;;;;5055039;28;20072;-54
2021/12/14 03:04:03;;;;;;;17.85;12.07;;;9.20;99.90;;;;;;5053246;28;19960;-55
2021/12/14 03:06:35;;;;;;;;;;;9.20;99.90;;;;;;5053760;28;20112;-56
2021/12/14 03:09:20;;;;;;;16.88;11.20;;;9.20;99.90;;;;;;5053533;28;19905;-56
2021/12/14 03:11:46;;;;;;;17.17;12.13;;;9.10;99.90;;;;;;5053411;28;20033;-54
2021/12/14 03:14:11;;;;;;;19.83;11.77;;;9.10;99.90;;;;;;5053354;28;20056;-55
2021/12/14 03:16:38;;;;;;;17.40;11.27;;;9.20;99.90;;;;;;5035330;28;20112;-50
2021/12/14 03:19:06;;;;;;;21.45;12.18;;;9.20;99.90;;;;;;5052732;28;20029;-52
2021/12/14 03:21:39;;;;;;;20.50;12.05;;;9.20;99.90;;;;;;5053370;28;20029;-51
2021/12/14 03:24:11;;;;;;;22.58;11.82;;;9.10;99.90;;;;;;5053366;28;20511;-54
2021/12/14 03:26:40;;;;;;;17.23;11.05;;;9.10;99.90;;;;;;5053500;28;20150;-52
2021/12/14 03:29:20;;;;;;;19.38;12.70;;;9.10;99.90;;;;;;5053963;28;20029;-53
2021/12/14 03:31:49;;;;;;;19.88;11.90;;;9.10;99.90;;;;;;5053632;28;20021;-52
2021/12/14 03:34:23;;;;;;;17.73;11.43;;;9.20;99.90;;;;;;5054184;28;20025;-51
2021/12/14 03:37:15;;;;;;;17.15;11.05;;;9.10;99.90;;;;;;5053645;28;20025;-53
2021/12/14 03:39:48;;;;;;;19.55;11.52;;;9.10;99.90;;;;;;5035710;28;20079;-51
2021/12/14 03:42:37;;;;;;;21.10;11.93;;;9.10;99.90;;;;;;5053218;28;20100;-50
2021/12/14 03:45:15;;;;;;;19.52;10.77;;;9.10;99.90;;;;;;5053063;28;20017;-50
2021/12/14 03:47:46;;;;;;;23.90;11.50;;;9.10;99.90;;;;;;5052959;28;20044;-52
2021/12/14 03:50:13;;;;;;;17.33;10.68;;;9.10;99.90;;;;;;5052656;28;20456;-53
2021/12/14 03:52:41;;;;;;;18.90;11.73;;;9.10;99.90;;;;;;5052656;28;20025;-52
2021/12/14 03:55:16;;;;;;;19.38;12.07;;;9.00;99.90;;;;;;5052740;28;20025;-53
2021/12/14 03:57:42;;;;;;;17.00;10.73;;;9.10;99.90;;;;;;5052732;28;20052;-51
2021/12/14 04:00:34;;;;;;;18.10;11.85;;;9.10;99.90;;;;;;5052251;28;20021;-54
2021/12/14 04:03:04;;;;;;;16.73;11.10;;;9.10;99.90;;;;;;5052667;28;20021;-54
2021/12/14 04:05:30;;;;;;;19.15;10.73;;;9.00;99.90;;;;;;5052588;28;20029;-52
2021/12/14 04:07:56;;;;;;;15.63;11.15;;;9.10;99.90;;;;;;5052745;28;20031;-52
2021/12/14 04:10:29;;;;;;;17.15;11.95;;;9.10;99.90;;;;;;5052364;28;20394;-53
2021/12/14 04:12:55;;;;;;;22.98;11.13;;;9.10;99.90;;;;;;5052492;28;20136;-51
2021/12/14 04:15:22;;;;;;;22.25;11.73;;;9.10;99.90;;;;;;5034556;28;20052;-53
2021/12/14 04:17:48;;;;;;;17.75;10.90;;;9.00;99.90;;;;;;5034374;28;20139;-54
2021/12/14 04:20:22;;;;;;;16.77;10.80;;;9.10;99.90;;;;;;5052676;28;20025;-54
2021/12/14 04:22:49;;;;;;;15.27;11.18;;;9.10;99.90;;;;;;5052617;28;20090;-52
2021/12/14 04:25:18;;;;;;;14.93;10.60;;;9.20;99.90;;;;;;5052850;28;20021;-51
2021/12/14 04:27:44;;;;;;;18.80;11.93;;;9.20;99.90;;;;;;5052867;28;20485;-52
2021/12/14 04:30:13;;;;;;;18.02;11.07;;;9.20;99.90;;;;;;5053135;28;20036;-54
2021/12/14 04:32:39;;;;;;;22.02;11.45;;;9.20;99.90;;;;;;5052864;28;20051;-51
2021/12/14 04:35:06;;;;;;;19.13;11.60;;;9.10;99.90;;;;;;5053705;28;20474;-54
2021/12/14 04:37:38;;;;;;;16.42;11.75;;;9.10;99.90;;;;;;5036030;28;20025;-52
2021/12/14 04:40:24;;;;;;;;;;;9.10;99.90;;;;;;5053387;28;20387;-50
2021/12/14 04:54:01;;;;;;;19.70;11.77;;;9.10;99.90;;;;;;5053098;28;20032;-53
2021/12/14 04:56:37;;;;;;;19.05;11.40;;;9.10;99.90;;;;;;5053039;28;20033;-53
2021/12/14 04:59:11;;;;;;;19.52;11.88;;;9.10;99.90;;;;;;5052569;28;20025;-53
2021/12/14 05:01:41;;;;;;;19.27;12.63;;;9.10;99.90;;;;;;5055379;28;20477;-53
2021/12/14 05:04:10;;;;;;;21.55;12.27;;;9.20;99.90;;;;;;5056542;28;20101;-51
2021/12/14 05:06:48;;;;;;;18.95;12.23;;;9.10;99.90;;;;;;5056525;28;20048;-52
2021/12/14 05:09:29;;;;;;;22.58;12.65;;;9.20;99.90;;;;;;5056469;28;20389;-53
2021/12/14 05:12:16;;;;;;;18.20;11.77;;;9.20;99.90;;;;;;5055936;28;20036;-54
2021/12/14 05:14:44;;;;;;;19.10;13.15;;;9.20;99.90;;;;;;5055958;28;20140;-55
2021/12/14 05:17:14;;;;;;;22.98;13.25;;;9.10;99.90;;;;;;5056337;28;20366;-52
2021/12/14 05:19:41;;;;;;;21.50;14.07;;;9.10;99.90;;;;;;5056414;28;20104;-52
2021/12/14 05:22:15;;;;;;;21.27;12.73;;;9.10;99.90;;;;;;5055960;28;20036;-53
2021/12/14 05:24:47;;;;;;;20.23;12.55;;;9.10;99.90;;;;;;5056723;28;20025;-53
2021/12/14 05:27:19;;;;;;;22.35;13.20;;;9.20;99.90;;;;;;5058832;28;20104;-52
2021/12/14 05:29:45;;;;;;;20.92;13.15;;;9.10;99.90;;;;;;5058899;28;20037;-54
2021/12/14 05:32:15;;;;;;;23.25;13.52;;;9.20;99.90;;;;;;5040643;28;20033;-54
2021/12/14 05:34:42;;;;;;;28.30;13.55;;;9.20;99.90;;;;;;5047887;28;20436;-54
2021/12/14 05:37:10;;;;;;;24.38;13.93;;;9.20;99.90;;;;;;5056592;28;20056;-53
2021/12/14 05:45:22;;;;;;;22.42;14.75;;;9.10;99.90;;;;;;5056467;28;20028;-55
2021/12/14 05:47:58;;;;;;;22.45;14.25;;;9.20;99.90;;;;;;5056441;28;20048;-54
2021/12/14 05:50:32;;;;;;;24.70;14.07;;;9.10;99.90;;;;;;5037600;22;20049;-71
2021/12/14 05:52:58;;;;;;;27.20;14.55;;;9.10;99.90;;;;;;5042255;28;20028;-71
2021/12/14 05:55:27;;;;;;;25.00;14.57;;;9.10;99.90;;;;;;5039820;28;20017;-71
2021/12/14 05:57:55;;;;;;;24.30;13.48;;;9.00;99.90;;;;;;5038882;28;20036;-70
2021/12/14 06:00:21;;;;;;;27.10;14.70;;;9.00;99.90;;;;;;5075662;22;20037;-70
2021/12/14 06:02:47;;;;;;;25.85;14.63;;;9.00;99.90;;;;;;5040873;28;20044;-70
2021/12/14 06:05:17;;;;;;;23.05;13.80;;;9.10;99.90;;;;;;5049299;28;20024;-68
2021/12/14 06:07:43;;;;;;;25.60;14.13;;;9.10;99.90;;;;;;5060797;28;20032;-68
2021/12/14 06:10:11;;;;;;;23.52;14.27;;;9.10;99.90;;;;;;5061228;28;20025;-69
2021/12/14 06:12:39;;;;;;;25.70;13.82;;;9.10;99.90;;;;;;5055002;28;20029;-69
2021/12/14 06:15:10;;;;;;;24.38;14.23;;;9.00;99.90;;;;;;5054340;28;20174;-70
2021/12/14 06:17:39;;;;;;;27.20;14.00;;;9.00;99.90;;;;;;5056170;28;20047;-71
2021/12/14 06:20:10;;;;;;;25.33;14.82;;;9.00;99.90;;;;;;5061039;28;20078;-70
2021/12/14 06:22:37;;;;;;;26.92;14.95;;;9.00;99.90;;;;;;5071345;28;20037;-69
2021/12/14 06:25:10;;;;;;;25.80;15.30;;;9.00;99.90;;;;;;5061289;28;20029;-72
2021/12/14 06:27:35;;;;;;;21.98;13.85;;;9.00;99.90;;;;;;5053636;28;20071;-71
2021/12/14 06:30:08;;;;;;;28.85;14.90;;;9.00;99.90;;;;;;5053615;28;20029;-71
2021/12/14 06:32:39;;;;;;;25.25;14.63;;;9.10;99.90;;;;;;5054709;28;20029;-71
2021/12/14 06:35:16;;;;;;;27.60;15.50;;;9.10;99.90;;;;;;5054579;28;20063;-72
2021/12/14 06:38:27;;;;;;;23.77;13.32;;;9.10;99.90;;;;;;5055731;28;20029;-70
2021/12/14 06:41:06;;;;;;;26.15;14.13;;;9.10;99.90;;;;;;5026551;28;20041;-70
2021/12/14 06:43:40;;;;;;;22.98;14.20;;;9.10;99.90;;;;;;5055080;28;20429;-69
2021/12/14 06:46:16;;;;;;;29.30;15.15;;;9.10;99.90;;;;;;5054846;28;20056;-69
2021/12/14 06:48:51;;;;;;;25.23;15.38;;;9.10;99.90;;;;;;5054452;28;20082;-68
2021/12/14 06:51:20;;;;;;;27.40;14.50;;;9.10;99.90;;;;;;5054384;28;20053;-70
2021/12/14 06:53:49;;;;;;;22.95;14.02;;;9.10;99.90;;;;;;5053351;28;20462;-70
2021/12/14 06:56:16;;;;;;;28.50;15.18;;;9.10;99.90;;;;;;5054506;28;20098;-70
2021/12/14 06:59:06;;;;;;;27.73;16.52;;;9.10;99.90;;;;;;5054455;28;20021;-69
2021/12/14 07:01:36;;;;;;;29.52;15.98;;;9.10;99.90;;;;;;5054775;28;20025;-69
2021/12/14 07:04:08;;;;;;;25.00;15.43;;;9.10;99.90;;;;;;5054519;28;20017;-69
2021/12/14 07:06:38;;;;;;;24.17;15.27;;;9.10;99.90;;;;;;5054424;28;20040;-70
2021/12/14 07:09:07;;;;;;;27.50;15.55;;;9.10;99.90;;;;;;5054580;28;20074;-69
2021/12/14 07:11:32;;;;;;;27.75;16.42;;;9.10;99.90;;;;;;5054388;28;20036;-68
2021/12/14 07:14:01;;;;;;;28.60;16.60;;;9.00;99.90;;;;;;5055089;28;20029;-71
2021/12/14 07:16:37;;;;;;;28.85;16.38;;;9.00;99.90;;;;;;5054409;28;20020;-70
2021/12/14 07:19:05;;;;;;;27.52;16.05;;;9.00;99.90;;;;;;5053896;28;20053;-68
2021/12/14 07:21:43;;;;;;;31.35;16.92;;;9.10;99.90;;;;;;5054334;28;20017;-70
2021/12/14 07:24:23;;;;;;;29.58;16.85;;;9.10;99.90;;;;;;5054279;28;20373;-69
2021/12/14 07:27:10;;;;;;;33.93;18.00;;;9.10;99.90;;;;;;5054570;28;20099;-73
2021/12/14 07:29:36;;;;;;;29.63;17.50;;;9.10;99.90;;;;;;5057821;28;20128;-70
2021/12/14 07:32:02;;;;;;;31.95;17.13;;;9.10;99.90;;;;;;5057725;28;20029;-71
2021/12/14 07:34:28;;;;;;;31.33;18.08;;;9.00;99.90;;;;;;5056586;28;20104;-70
2021/12/14 07:36:53;;;;;;;30.67;18.33;;;9.00;99.90;;;;;;5057853;28;20057;-70
2021/12/14 07:39:20;;;;;;;33.58;18.50;;;9.10;99.90;;;;;;5060730;28;20075;-70
2021/12/14 07:42:04;;;;;;;35.33;18.85;;;9.10;99.90;;;;;;5054836;28;20024;-71
2021/12/14 07:44:34;;;;;;;31.67;17.27;;;9.10;99.90;;;;;;5058349;28;20029;-70
2021/12/14 07:47:12;;;;;;;32.65;19.10;;;9.20;99.90;;;;;;5060520;28;20420;-70
2021/12/14 07:49:45;;;;;;;36.58;20.63;;;9.10;99.90;;;;;;5055597;28;20025;-69
2021/12/14 07:52:21;;;;;;;33.25;19.05;;;9.10;99.90;;;;;;5053223;28;20025;-70
2021/12/14 07:54:59;;;;;;;36.58;19.60;;;9.10;99.90;;;;;;5054051;28;20509;-74
2021/12/14 07:57:34;;;;;;;31.83;19.65;;;9.20;99.90;;;;;;5053815;28;20032;-71
2021/12/14 08:00:22;;;;;;;33.80;18.80;;;9.10;99.90;;;;;;5053399;28;20048;-71
2021/12/14 08:02:55;;;;;;;35.60;20.95;;;9.10;99.90;;;;;;5053465;28;20024;-70
2021/12/14 08:05:31;;;;;;;37.63;19.70;;;9.10;99.90;;;;;;5053913;28;20021;-70
2021/12/14 08:08:15;;;;;;;35.72;20.15;;;9.20;99.90;;;;;;5053821;28;20112;-71
2021/12/14 08:10:46;;;;;;;39.47;20.63;;;9.20;99.90;;;;;;5053026;28;20395;-69
2021/12/14 08:13:24;;;;;;;37.05;19.80;;;9.10;99.90;;;;;;5053970;28;20021;-71
2021/12/14 08:15:53;;;;;;;37.03;21.42;;;9.10;99.90;;;;;;5054664;28;20088;-71
2021/12/14 08:18:28;;;;;;;39.80;21.90;;;9.20;99.90;;;;;;5053460;28;20386;-71
2021/12/14 08:21:19;;;;;;;34.10;20.95;;;9.10;99.90;;;;;;5054236;28;20060;-70
2021/12/14 08:23:54;;;;;;;39.15;21.45;;;9.10;99.90;;;;;;5068877;28;20021;-70
2021/12/14 08:26:43;;;;;;;36.78;21.45;;;9.20;99.90;;;;;;5058929;28;20112;-71
2021/12/14 08:29:11;;;;;;;44.90;23.10;;;9.10;99.90;;;;;;5052779;28;20041;-71
2021/12/14 08:31:51;;;;;;;37.28;20.88;;;9.20;99.90;;;;;;5053501;28;20032;-70
2021/12/14 08:34:25;;;;;;;47.33;23.60;;;9.10;99.90;;;;;;5052311;28;20029;-69
2021/12/14 08:37:04;;;;;;;39.10;23.05;;;9.10;99.90;;;;;;5057133;28;20100;-71
2021/12/14 08:39:38;;;;;;;43.95;24.13;;;9.10;99.90;;;;;;5056410;28;20024;-70
2021/12/14 08:42:13;;;;;;;46.03;23.67;;;9.10;99.90;;;;;;5056975;28;20021;-70
2021/12/14 08:44:41;;;;;;;41.42;22.88;;;9.10;99.90;;;;;;5057207;28;20107;-71
2021/12/14 08:47:13;;;;;;;45.65;24.52;;;9.10;99.90;;;;;;5057208;28;20056;-72
2021/12/14 08:49:41;;;;;;;43.60;24.85;;;9.20;99.90;;;;;;5056248;28;20029;-71
2021/12/14 08:52:07;;;;;;;46.00;25.15;;;9.30;99.90;;;;;;5057031;28;20456;-70
2021/12/14 08:54:35;;;;;;;41.70;23.73;;;9.20;99.90;;;;;;5056970;28;20040;-71
2021/12/14 08:57:08;;;;;;;44.90;25.13;;;9.30;99.90;;;;;;5057191;28;20021;-72
2021/12/14 08:59:38;;;;;;;46.45;24.67;;;9.30;99.90;;;;;;5056472;28;20104;-72
2021/12/14 09:02:08;;;;;;;43.72;24.50;;;9.30;99.90;;;;;;5056197;28;20079;-70
2021/12/14 09:04:39;;;;;;;45.60;25.77;;;9.30;99.90;;;;;;5056415;28;20021;-71
2021/12/14 09:07:12;;;;;;;45.00;25.05;;;9.30;99.90;;;;;;5056467;28;20401;-71
2021/12/14 09:09:39;;;;;;;53.00;26.50;;;9.30;99.90;;;;;;5056460;28;20451;-70
2021/12/14 09:12:13;;;;;;;73.47;28.17;;;9.40;99.90;;;;;;5055959;28;20029;-70
2021/12/14 09:14:41;;;;;;;52.05;26.40;;;9.30;99.90;;;;;;5056170;28;20021;-70
2021/12/14 09:17:09;;;;;;;52.05;27.05;;;9.40;99.90;;;;;;5056324;28;20029;-71
2021/12/14 09:19:44;;;;;;;48.10;27.00;;;9.40;99.90;;;;;;5056800;28;20036;-69
2021/12/14 09:22:24;;;;;;;54.22;27.35;;;9.40;99.90;;;;;;5056192;28;20031;-71
2021/12/14 09:24:50;;;;;;;54.40;25.98;;;9.50;99.90;;;;;;5054865;28;20021;-72
2021/12/14 09:27:20;;;;;;;47.38;26.60;;;9.50;99.90;;;;;;5055472;28;20027;-72
2021/12/14 09:29:47;;;;;;;45.90;26.50;;;9.50;99.90;;;;;;5054876;28;20029;-72
2021/12/14 09:32:18;;;;;;;58.92;27.20;;;9.50;99.90;;;;;;5055695;28;20021;-70
2021/12/14 09:34:44;;;;;;;54.35;27.23;;;9.50;99.90;;;;;;5056227;28;20025;-71
2021/12/14 09:37:11;;;;;;;57.67;29.10;;;9.50;99.90;;;;;;5055172;28;20029;-70
2021/12/14 09:39:46;;;;;;;53.13;28.75;;;9.40;99.90;;;;;;5056399;28;20068;-72
2021/12/14 09:42:17;;;;;;;60.75;28.08;;;9.40;99.90;;;;;;5055958;28;20413;-73
2021/12/14 09:44:43;;;;;;;;;;;9.40;99.90;;;;;;5056523;28;20466;-73
2021/12/14 09:47:16;;;;;;;57.22;27.85;;;9.40;99.90;;;;;;5053712;28;19904;-72
2021/12/14 09:49:44;;;;;;;60.17;28.42;;;9.40;99.90;;;;;;5055702;28;20426;-72
2021/12/14 09:52:27;;;;;;;61.88;29.65;;;9.40;99.90;;;;;;5055624;28;20158;-72
2021/12/14 09:54:53;;;;;;;53.58;27.95;;;9.40;99.90;;;;;;5055736;28;20028;-71
2021/12/14 09:57:25;;;;;;;55.03;29.30;;;9.40;99.90;;;;;;5055472;28;20033;-72
2021/12/14 09:59:53;;;;;;;53.90;29.15;;;9.40;99.90;;;;;;5055311;28;20029;-71
2021/12/14 10:02:33;;;;;;;60.20;31.35;;;9.40;99.90;;;;;;5056191;28;20021;-72
2021/12/14 10:05:43;;;;;;;58.70;31.43;;;9.40;99.90;;;;;;5056231;28;20023;-72
2021/12/14 10:08:18;;;;;;;55.38;30.23;;;9.40;99.90;;;;;;5041431;28;20260;-72
2021/12/14 10:10:52;;;;;;;58.03;31.85;;;9.40;99.90;;;;;;5055949;28;20416;-72
2021/12/14 10:13:18;;;;;;;56.58;30.40;;;9.40;99.90;;;;;;5054979;28;20106;-71
2021/12/14 10:15:51;;;;;;;59.03;30.25;;;9.50;99.90;;;;;;5055693;28;20116;-73
2021/12/14 10:18:31;;;;;;;64.80;31.80;;;9.50;99.90;;;;;;5054691;28;20035;-72
2021/12/14 10:21:03;;;;;;;58.13;30.88;;;9.40;99.90;;;;;;5054760;28;20087;-71
2021/12/14 10:23:30;;;;;;;63.92;32.78;;;9.40;99.90;;;;;;5054725;28;20136;-69
2021/12/14 10:25:57;;;;;;;60.17;32.78;;;9.40;99.90;;;;;;5064727;28;20017;-69
2021/12/14 10:28:24;;;;;;;69.75;34.75;;;9.40;99.90;;;;;;5061156;28;20033;-68
2021/12/14 10:30:58;;;;;;;63.35;32.90;;;9.40;99.90;;;;;;5054109;28;20014;-68
2021/12/14 10:33:25;;;;;;;61.15;32.05;;;9.40;99.90;;;;;;5055144;28;20104;-68
2021/12/14 10:35:58;;;;;;;59.72;32.33;;;9.40;99.90;;;;;;5054131;28;20155;-67
2021/12/14 10:38:36;;;;;;;81.53;33.20;;;9.40;99.90;;;;;;5054264;28;20016;-68
2021/12/14 10:43:55;;;;;;;60.83;31.67;;;9.40;99.90;;;;;;5054240;28;20105;-69
2021/12/14 10:46:30;;;;;;;68.25;34.88;;;9.50;99.90;;;;;;5053845;28;20470;-69
2021/12/14 10:48:57;;;;;;;66.03;32.58;;;9.50;99.90;;;;;;5054008;28;20029;-68
2021/12/14 10:51:28;;;;;;;57.20;30.75;;;9.50;99.90;;;;;;5053687;28;20394;-69
2021/12/14 10:53:59;;;;;;;61.92;32.85;;;9.60;99.90;;;;;;5054085;28;20025;-69
2021/12/14 10:56:31;;;;;;;63.90;32.58;;;9.60;99.90;;;;;;5053795;28;20390;-69
2021/12/14 10:59:00;;;;;;;64.75;34.58;;;9.70;99.90;;;;;;5053010;28;20083;-69
2021/12/14 11:01:34;;;;;;;67.50;33.53;;;9.70;99.90;;;;;;5053387;28;20081;-69
2021/12/14 11:04:07;;;;;;;64.85;34.05;;;9.80;99.90;;;;;;5053924;28;20024;-69
2021/12/14 11:06:35;;;;;;;60.92;31.27;;;9.80;99.90;;;;;;5052336;28;20037;-69
2021/12/14 11:11:49;;;;;;;71.55;35.60;;;9.70;99.90;;;;;;5054323;28;20036;-68
2021/12/14 11:14:20;;;;;;;68.55;34.63;;;9.80;99.90;;;;;;5052246;28;20025;-68
2021/12/14 11:19:47;;;;;;;62.90;32.83;;;9.90;99.90;;;;;;5053438;28;20056;-72
2021/12/14 11:22:21;;;;;;;65.32;34.78;;;9.90;99.90;;;;;;5054036;28;20457;-71
2021/12/14 11:24:52;;;;;;;78.70;37.80;;;9.90;99.90;;;;;;5054328;28;20087;-72
2021/12/14 11:27:40;;;;;;;71.13;35.80;;;9.80;99.90;;;;;;5054698;28;20101;-72
2021/12/14 11:30:18;;;;;;;72.88;36.00;;;9.60;99.90;;;;;;5053447;28;20082;-72
2021/12/14 11:33:06;;;;;;;76.55;35.88;;;9.50;99.90;;;;;;5052175;28;20052;-71
2021/12/14 11:35:37;;;;;;;76.85;37.50;;;9.50;99.90;;;;;;5053500;28;20083;-71
2021/12/14 11:38:11;;;;;;;71.78;35.47;;;9.50;99.90;;;;;;5053270;28;20032;-72
2021/12/14 11:40:37;;;;;;;79.20;37.85;;;9.50;99.90;;;;;;5053762;28;20028;-71
2021/12/14 11:43:17;;;;;;;77.22;39.90;;;9.50;99.90;;;;;;5053018;28;20055;-70
2021/12/14 11:45:46;;;;;;;75.32;36.53;;;9.40;99.90;;;;;;5054049;28;20370;-71
2021/12/14 11:48:13;;;;;;;72.25;35.90;;;9.50;99.90;;;;;;5052763;28;20025;-71
2021/12/14 11:50:42;;;;;;;72.88;37.47;;;9.50;99.90;;;;;;5052968;28;20090;-70
2021/12/14 11:53:10;;;;;;;87.80;38.13;;;9.50;99.90;;;;;;5053216;28;20123;-72
2021/12/14 11:55:46;;;;;;;78.35;39.85;;;9.60;99.90;;;;;;5051028;28;20021;-72
2021/12/14 11:58:20;;;;;;;74.85;37.45;;;9.50;99.90;;;;;;5051050;28;20489;-71
2021/12/14 12:01:13;;;;;;;78.57;37.80;;;9.50;99.90;;;;;;5051826;28;20098;-71
2021/12/14 12:03:52;;;;;;;74.60;38.42;;;9.50;99.90;;;;;;5044063;28;20056;-72
2021/12/14 12:09:28;;;;;;;77.50;37.25;;;9.40;99.90;;;;;;5052549;28;20104;-71
2021/12/14 12:09:31;;;;;;;78.55;39.53;;;9.50;99.90;;;;;;5052958;28;20025;-72
2021/12/14 12:12:06;;;;;;;74.47;37.47;;;9.50;99.90;;;;;;5085458;22;20049;-71
2021/12/14 12:14:52;;;;;;;76.85;38.83;;;9.50;99.90;;;;;;5020835;28;20025;-71
2021/12/14 12:17:29;;;;;;;76.40;38.38;;;9.50;99.90;;;;;;5037200;28;20037;-71
2021/12/14 12:20:05;;;;;;;73.53;36.70;;;9.50;99.90;;;;;;5036393;28;20025;-72
2021/12/14 12:22:44;;;;;;;74.72;37.25;;;9.50;99.90;;;;;;5037692;28;20047;-71
2021/12/14 12:25:16;;;;;;;72.93;36.30;;;9.50;99.90;;;;;;5038536;28;20032;-72
2021/12/14 12:27:51;;;;;;;75.35;36.53;;;9.60;99.90;;;;;;5037711;28;20029;-71
2021/12/14 12:30:40;;;;;;;71.05;36.25;;;9.60;99.90;;;;;;5037904;28;20041;-71
2021/12/14 12:33:11;;;;;;;71.35;35.03;;;9.60;99.90;;;;;;5037390;28;20024;-70
2021/12/14 12:35:39;;;;;;;;;;;9.50;99.90;;;;;;5037846;28;20025;-71
2021/12/14 12:38:22;;;;;;;71.75;33.25;;;9.50;99.90;;;;;;5037387;28;19909;-71
2021/12/14 12:41:06;;;;;;;69.57;34.78;;;9.50;99.90;;;;;;5038365;28;20040;-71
2021/12/14 12:43:59;;;;;;;71.35;34.53;;;9.60;99.90;;;;;;5040210;28;20029;-71
2021/12/14 12:46:35;;;;;;;75.70;36.00;;;9.60;99.90;;;;;;5001321;28;20044;-71
2021/12/14 12:49:07;;;;;;;70.25;35.40;;;9.50;99.90;;;;;;5037830;28;20028;-71
2021/12/14 12:51:37;;;;;;;69.63;35.15;;;9.50;99.90;;;;;;5037494;28;20025;-71
2021/12/14 12:54:33;;;;;;;76.18;37.33;;;9.60;99.90;;;;;;5037767;28;20077;-71
2021/12/14 12:57:08;;;;;;;70.18;37.63;;;9.60;99.90;;;;;;5020596;28;20045;-71
2021/12/14 12:59:58;;;;;;;73.13;34.45;;;9.60;99.90;;;;;;5023266;28;20429;-72
2021/12/14 13:02:38;;;;;;;78.18;36.65;;;9.70;99.90;;;;;;5019633;28;20028;-72
2021/12/14 13:05:24;;;;;;;79.15;38.65;;;9.70;99.90;;;;;;5036526;28;20025;-72
2021/12/14 13:08:06;;;;;;;77.25;38.03;;;9.70;99.90;;;;;;5022670;28;20462;-72
2021/12/14 13:10:38;;;;;;;79.82;37.97;;;9.70;99.90;;;;;;5037331;28;20026;-71
2021/12/14 13:13:13;;;;;;;88.53;39.47;;;9.80;99.90;;;;;;5036676;28;20044;-71
2021/12/14 13:15:44;;;;;;;80.65;37.42;;;9.80;99.90;;;;;;5018879;28;20085;-71
2021/12/14 13:18:23;;;;;;;81.72;40.55;;;9.80;99.90;;;;;;5019233;28;20144;-73
2021/12/14 13:21:10;;;;;;;79.28;38.38;;;9.80;99.90;;;;;;5018991;28;20044;-71
2021/12/14 13:23:48;;;;;;;81.10;39.10;;;9.80;99.90;;;;;;4981216;28;20033;-71
2021/12/14 13:26:35;;;;;;;85.70;39.80;;;9.90;99.90;;;;;;5039393;28;20448;-71
2021/12/14 13:29:12;;;;;;;81.05;40.60;;;9.90;99.90;;;;;;5022378;28;20440;-71
2021/12/14 13:31:45;;;;;;;81.85;39.47;;;9.90;99.90;;;;;;5038614;28;20029;-71
2021/12/14 13:34:25;;;;;;;74.80;38.10;;;9.80;99.90;;;;;;5039186;28;20112;-72
2021/12/14 13:36:53;;;;;;;89.38;41.15;;;9.80;99.90;;;;;;5039567;28;20537;-71
2021/12/14 13:39:19;;;;;;;88.88;41.65;;;9.80;99.90;;;;;;5037937;28;20059;-72
2021/12/14 13:41:59;;;;;;;79.65;38.00;;;9.80;99.90;;;;;;5037453;28;20025;-71
2021/12/14 13:44:31;;;;;;;80.20;39.92;;;9.80;99.90;;;;;;5037406;28;20025;-72
2021/12/14 13:46:58;;;;;;;81.43;38.30;;;9.80;99.90;;;;;;5019670;28;20450;-72